PWSweather.com
Personal Weather Stations
Station Observations
KIDJEROME
Sse Jerome Butte , Jerome, ID 83338

Sse Jerome Butte Jerome, ID 83338

Lat: 42.6981891, Lon: -114.4041362

Elevation: 3960

Station Type: Davis Vantage Pro 2

High Low Average
Temperature 48.0°F8.9°C 34.2°F1.2°C 39.8°F4.3°C
Dew Point 38.4°F3.6°C 31.0°F-0.6°C 34.6°F1.4°C
Winds 15.0 mph 24.1 kmh Calm Calm 7.0 mph WNW11.3 kmh WNW
Wind Gusts 24.0 mph38.6 kmh 1.0 mph1.6 kmh 11.0 mph17.7 kmh
Humidity 90% 65% 82%
Pressure 30.42 in1030.1 mb 30.07 in1018.3 mb -
Precipitation 0.00 in0.0 mm - -
Hour Temp Dew Point Humidity Winds Wind Gusts Pressure Precip Precip Rate Daily Precip Total
12:00 AM 40.2°F4.6°C 36.9°F2.7°C 88% 6.0 mph W9.7 kmh W 13.0 mph20.9 kmh 30.03 in1016.9 mb 0.00 in0.0 mm 0.00 in0.0 mm 0.01 in0.3 mm
12:15 AM 41.5°F5.3°C 37.0°F2.8°C 84% 10.0 mph W16.1 kmh W 15.0 mph24.1 kmh 30.04 in1017.3 mb 0.01 in0.3 mm 0.04 in1.0 mm 0.02 in0.5 mm
12:30 AM 42.2°F5.7°C 37.4°F3.0°C 83% 12.0 mph W19.3 kmh W 17.0 mph27.4 kmh 30.05 in1017.6 mb 0.01 in0.3 mm 0.00 in0.0 mm 0.02 in0.5 mm
12:45 AM 42.1°F5.6°C 37.3°F2.9°C 83% 13.0 mph W20.9 kmh W 31.0 mph49.9 kmh 30.06 in1017.9 mb 0.01 in0.3 mm 0.00 in0.0 mm 0.02 in0.5 mm
01:00 AM 39.6°F4.2°C 35.8°F2.1°C 86% 12.0 mph NW19.3 kmh NW 14.0 mph22.5 kmh 30.07 in1018.3 mb 0.01 in0.3 mm 0.00 in0.0 mm 0.01 in0.3 mm
01:15 AM 39.1°F3.9°C 35.6°F2.0°C 87% 9.0 mph NW14.5 kmh NW 14.0 mph22.5 kmh 30.08 in1018.6 mb 0.00 in0.0 mm 0.00 in0.0 mm 0.01 in0.3 mm
01:30 AM 38.8°F3.8°C 35.6°F2.0°C 88% 10.0 mph WNW16.1 kmh WNW 13.0 mph20.9 kmh 30.08 in1018.6 mb 0.00 in0.0 mm 0.00 in0.0 mm 0.01 in0.3 mm
01:45 AM 39.1°F3.9°C 35.8°F2.1°C 88% 9.0 mph W14.5 kmh W 14.0 mph22.5 kmh 30.09 in1019.0 mb 0.00 in0.0 mm 0.00 in0.0 mm 0.01 in0.3 mm
02:00 AM 39.4°F4.1°C 35.9°F2.2°C 87% 10.0 mph WNW16.1 kmh WNW 13.0 mph20.9 kmh 30.09 in1019.0 mb 0.00 in0.0 mm 0.00 in0.0 mm 0.01 in0.3 mm
02:15 AM 38.8°F3.8°C 35.3°F1.8°C 87% 9.0 mph W14.5 kmh W 11.0 mph17.7 kmh 30.09 in1019.0 mb 0.00 in0.0 mm 0.00 in0.0 mm 0.01 in0.3 mm
02:30 AM 38.9°F3.8°C 35.4°F1.9°C 87% 10.0 mph W16.1 kmh W 14.0 mph22.5 kmh 30.10 in1019.3 mb 0.00 in0.0 mm 0.00 in0.0 mm 0.01 in0.3 mm
02:45 AM 38.7°F3.7°C 35.2°F1.8°C 87% 10.0 mph W16.1 kmh W 16.0 mph25.7 kmh 30.10 in1019.3 mb 0.00 in0.0 mm 0.00 in0.0 mm 0.01 in0.3 mm
03:00 AM 38.4°F3.6°C 34.9°F1.6°C 87% 11.0 mph W17.7 kmh W 16.0 mph25.7 kmh 30.11 in1019.6 mb 0.00 in0.0 mm 0.00 in0.0 mm 0.01 in0.3 mm
03:15 AM 38.2°F3.4°C 35.0°F1.7°C 88% 9.0 mph W14.5 kmh W 14.0 mph22.5 kmh 30.12 in1020.0 mb 0.00 in0.0 mm 0.00 in0.0 mm 0.01 in0.3 mm
03:30 AM 38.1°F3.4°C 34.9°F1.6°C 88% 8.0 mph W12.9 kmh W 11.0 mph17.7 kmh 30.12 in1020.0 mb 0.00 in0.0 mm 0.00 in0.0 mm 0.01 in0.3 mm
03:45 AM 38.2°F3.4°C 34.7°F1.5°C 87% 8.0 mph W12.9 kmh W 11.0 mph17.7 kmh 30.14 in1020.7 mb 0.00 in0.0 mm 0.00 in0.0 mm 0.01 in0.3 mm
04:00 AM 38.1°F3.4°C 34.3°F1.3°C 86% 8.0 mph WNW12.9 kmh WNW 10.0 mph16.1 kmh 30.15 in1021.0 mb 0.00 in0.0 mm 0.00 in0.0 mm 0.01 in0.3 mm
04:15 AM 36.8°F2.7°C 33.9°F1.1°C 89% 6.0 mph WNW9.7 kmh WNW 9.0 mph14.5 kmh 30.15 in1021.0 mb 0.00 in0.0 mm 0.00 in0.0 mm 0.01 in0.3 mm
04:30 AM 37.8°F3.2°C 34.3°F1.3°C 87% 7.0 mph W11.3 kmh W 12.0 mph19.3 kmh 30.16 in1021.3 mb 0.00 in0.0 mm 0.00 in0.0 mm 0.01 in0.3 mm
04:45 AM 38.1°F3.4°C 34.0°F1.1°C 85% 9.0 mph W14.5 kmh W 14.0 mph22.5 kmh 30.16 in1021.3 mb 0.00 in0.0 mm 0.00 in0.0 mm 0.01 in0.3 mm
05:00 AM 38.2°F3.4°C 33.8°F1.0°C 84% 10.0 mph W16.1 kmh W 14.0 mph22.5 kmh 30.15 in1021.0 mb 0.00 in0.0 mm 0.00 in0.0 mm 0.01 in0.3 mm
05:15 AM 38.3°F3.5°C 33.9°F1.1°C 84% 10.0 mph W16.1 kmh W 14.0 mph22.5 kmh 30.16 in1021.3 mb 0.00 in0.0 mm 0.00 in0.0 mm 0.01 in0.3 mm
05:30 AM 38.3°F3.5°C 33.6°F0.9°C 83% 10.0 mph W16.1 kmh W 14.0 mph22.5 kmh 30.17 in1021.7 mb 0.00 in0.0 mm 0.00 in0.0 mm 0.01 in0.3 mm
05:45 AM 38.7°F3.7°C 33.7°F0.9°C 82% 10.0 mph W16.1 kmh W 14.0 mph22.5 kmh 30.17 in1021.7 mb 0.00 in0.0 mm 0.00 in0.0 mm 0.01 in0.3 mm
06:00 AM 37.8°F3.2°C 33.1°F0.6°C 83% 10.0 mph W16.1 kmh W 14.0 mph22.5 kmh 30.18 in1022.0 mb 0.00 in0.0 mm 0.00 in0.0 mm 0.01 in0.3 mm
06:15 AM 37.5°F3.1°C 33.1°F0.6°C 84% 10.0 mph W16.1 kmh W 15.0 mph24.1 kmh 30.19 in1022.4 mb 0.00 in0.0 mm 0.00 in0.0 mm 0.01 in0.3 mm
06:30 AM 37.1°F2.8°C 32.7°F0.4°C 84% 9.0 mph W14.5 kmh W 13.0 mph20.9 kmh 30.20 in1022.7 mb 0.00 in0.0 mm 0.00 in0.0 mm 0.01 in0.3 mm
06:45 AM 36.8°F2.7°C 32.4°F0.2°C 84% 7.0 mph W11.3 kmh W 9.0 mph14.5 kmh 30.20 in1022.7 mb 0.00 in0.0 mm 0.00 in0.0 mm 0.01 in0.3 mm
07:00 AM 36.5°F2.5°C 32.4°F0.2°C 85% 8.0 mph W12.9 kmh W 12.0 mph19.3 kmh 30.21 in1023.0 mb 0.00 in0.0 mm 0.00 in0.0 mm 0.01 in0.3 mm
07:15 AM 36.7°F2.6°C 32.3°F0.2°C 84% 10.0 mph W16.1 kmh W 15.0 mph24.1 kmh 30.21 in1023.0 mb 0.00 in0.0 mm 0.00 in0.0 mm 0.01 in0.3 mm
07:30 AM 36.7°F2.6°C 32.3°F0.2°C 84% 11.0 mph W17.7 kmh W 14.0 mph22.5 kmh 30.22 in1023.4 mb 0.00 in0.0 mm 0.00 in0.0 mm 0.01 in0.3 mm
07:45 AM 36.5°F2.5°C 32.1°F0.1°C 84% 8.0 mph W12.9 kmh W 10.0 mph16.1 kmh 30.24 in1024.0 mb 0.00 in0.0 mm 0.00 in0.0 mm 0.01 in0.3 mm
08:00 AM 36.0°F2.2°C 31.9°F-0.1°C 85% 3.0 mph W4.8 kmh W 4.0 mph6.4 kmh 30.25 in1024.4 mb 0.00 in0.0 mm 0.00 in0.0 mm 0.01 in0.3 mm
08:15 AM 35.2°F1.8°C 31.7°F-0.2°C 87% Calm Calm 3.0 mph4.8 kmh 30.25 in1024.4 mb 0.00 in0.0 mm 0.00 in0.0 mm 0.01 in0.3 mm
08:30 AM 35.4°F1.9°C 32.2°F0.1°C 88% 3.0 mph WSW4.8 kmh WSW 8.0 mph12.9 kmh 30.26 in1024.7 mb 0.00 in0.0 mm 0.00 in0.0 mm 0.01 in0.3 mm
08:45 AM 35.3°F1.8°C 32.1°F0.1°C 88% 6.0 mph WSW9.7 kmh WSW 7.0 mph11.3 kmh 30.27 in1025.1 mb 0.00 in0.0 mm 0.00 in0.0 mm 0.01 in0.3 mm
09:00 AM 35.8°F2.1°C 32.3°F0.2°C 87% 4.0 mph WSW6.4 kmh WSW 7.0 mph11.3 kmh 30.28 in1025.4 mb 0.00 in0.0 mm 0.00 in0.0 mm 0.01 in0.3 mm
09:15 AM 35.0°F1.7°C 31.8°F-0.1°C 88% 4.0 mph WSW6.4 kmh WSW 5.0 mph8.0 kmh 30.29 in1025.7 mb 0.00 in0.0 mm 0.00 in0.0 mm 0.01 in0.3 mm
09:30 AM 34.7°F1.5°C 32.1°F0.1°C 90% 3.0 mph WNW4.8 kmh WNW 8.0 mph12.9 kmh 30.29 in1025.7 mb 0.00 in0.0 mm 0.00 in0.0 mm 0.01 in0.3 mm
09:45 AM 35.8°F2.1°C 32.6°F0.3°C 88% 8.0 mph W12.9 kmh W 13.0 mph20.9 kmh 30.29 in1025.7 mb 0.00 in0.0 mm 0.00 in0.0 mm 0.01 in0.3 mm
10:00 AM 36.2°F2.3°C 32.7°F0.4°C 87% 9.0 mph W14.5 kmh W 12.0 mph19.3 kmh 30.30 in1026.1 mb 0.00 in0.0 mm 0.00 in0.0 mm 0.01 in0.3 mm
10:15 AM 37.8°F3.2°C 33.7°F0.9°C 85% 9.0 mph WSW14.5 kmh WSW 14.0 mph22.5 kmh 30.31 in1026.4 mb 0.00 in0.0 mm 0.00 in0.0 mm 0.01 in0.3 mm
10:30 AM 38.6°F3.7°C 34.2°F1.2°C 84% 10.0 mph W16.1 kmh W 14.0 mph22.5 kmh 30.31 in1026.4 mb 0.00 in0.0 mm 0.00 in0.0 mm 0.01 in0.3 mm
10:45 AM 39.7°F4.3°C 35.0°F1.7°C 83% 8.0 mph W12.9 kmh W 12.0 mph19.3 kmh 30.32 in1026.8 mb 0.00 in0.0 mm 0.00 in0.0 mm 0.01 in0.3 mm
11:00 AM 40.8°F4.9°C 35.7°F2.1°C 82% 8.0 mph W12.9 kmh W 11.0 mph17.7 kmh 30.34 in1027.4 mb 0.00 in0.0 mm 0.00 in0.0 mm 0.01 in0.3 mm
11:15 AM 41.8°F5.4°C 36.4°F2.4°C 81% 7.0 mph W11.3 kmh W 10.0 mph16.1 kmh 30.35 in1027.8 mb 0.00 in0.0 mm 0.00 in0.0 mm 0.01 in0.3 mm
11:30 AM 42.5°F5.8°C 36.4°F2.4°C 79% 8.0 mph W12.9 kmh W 11.0 mph17.7 kmh 30.35 in1027.8 mb 0.00 in0.0 mm 0.00 in0.0 mm 0.01 in0.3 mm
11:45 AM 43.3°F6.3°C 37.9°F3.3°C 81% 10.0 mph W16.1 kmh W 15.0 mph24.1 kmh 30.36 in1028.1 mb 0.00 in0.0 mm 0.00 in0.0 mm 0.01 in0.3 mm
12:00 PM 43.9°F6.6°C 37.2°F2.9°C 77% 12.0 mph W19.3 kmh W 16.0 mph25.7 kmh 30.36 in1028.1 mb 0.00 in0.0 mm 0.00 in0.0 mm 0.01 in0.3 mm
12:15 PM 44.4°F6.9°C 37.3°F2.9°C 76% 12.0 mph W19.3 kmh W 15.0 mph24.1 kmh 30.36 in1028.1 mb 0.00 in0.0 mm 0.00 in0.0 mm 0.01 in0.3 mm
12:30 PM 44.8°F7.1°C 37.4°F3.0°C 75% 13.0 mph W20.9 kmh W 20.0 mph32.2 kmh 30.36 in1028.1 mb 0.00 in0.0 mm 0.00 in0.0 mm 0.01 in0.3 mm
12:45 PM 45.5°F7.5°C 37.7°F3.2°C 74% 13.0 mph W20.9 kmh W 18.0 mph29.0 kmh 30.35 in1027.8 mb 0.00 in0.0 mm 0.00 in0.0 mm 0.01 in0.3 mm
01:00 PM 46.3°F7.9°C 38.1°F3.4°C 73% 12.0 mph W19.3 kmh W 20.0 mph32.2 kmh 30.36 in1028.1 mb 0.00 in0.0 mm 0.00 in0.0 mm 0.01 in0.3 mm
01:15 PM 46.6°F8.1°C 38.1°F3.4°C 72% 13.0 mph W20.9 kmh W 17.0 mph27.4 kmh 30.35 in1027.8 mb 0.00 in0.0 mm 0.00 in0.0 mm 0.01 in0.3 mm
01:30 PM 47.0°F8.3°C 37.4°F3.0°C 69% 15.0 mph WNW24.1 kmh WNW 20.0 mph32.2 kmh 30.35 in1027.8 mb 0.00 in0.0 mm 0.00 in0.0 mm 0.01 in0.3 mm
01:45 PM 47.3°F8.5°C 37.6°F3.1°C 69% 15.0 mph WNW24.1 kmh WNW 24.0 mph38.6 kmh 30.35 in1027.8 mb 0.00 in0.0 mm 0.00 in0.0 mm 0.01 in0.3 mm
02:00 PM 47.4°F8.6°C 37.0°F2.8°C 67% 15.0 mph WNW24.1 kmh WNW 21.0 mph33.8 kmh 30.34 in1027.4 mb 0.00 in0.0 mm 0.00 in0.0 mm 0.01 in0.3 mm
02:15 PM 47.4°F8.6°C 37.4°F3.0°C 68% 14.0 mph WNW22.5 kmh WNW 23.0 mph37.0 kmh 30.34 in1027.4 mb 0.00 in0.0 mm 0.00 in0.0 mm 0.01 in0.3 mm
02:30 PM 47.7°F8.7°C 38.4°F3.6°C 70% 15.0 mph WNW24.1 kmh WNW 23.0 mph37.0 kmh 30.33 in1027.1 mb 0.00 in0.0 mm 0.00 in0.0 mm 0.01 in0.3 mm
02:45 PM 47.6°F8.7°C 37.2°F2.9°C 67% 14.0 mph WNW22.5 kmh WNW 20.0 mph32.2 kmh 30.34 in1027.4 mb 0.00 in0.0 mm 0.00 in0.0 mm 0.01 in0.3 mm
03:00 PM 47.1°F8.4°C 37.1°F2.8°C 68% 14.0 mph WNW22.5 kmh WNW 23.0 mph37.0 kmh 30.34 in1027.4 mb 0.00 in0.0 mm 0.00 in0.0 mm 0.01 in0.3 mm
03:15 PM 47.5°F8.6°C 37.1°F2.8°C 67% 14.0 mph WNW22.5 kmh WNW 19.0 mph30.6 kmh 30.33 in1027.1 mb 0.00 in0.0 mm 0.00 in0.0 mm 0.01 in0.3 mm
03:30 PM 47.5°F8.6°C 37.5°F3.1°C 68% 13.0 mph WNW20.9 kmh WNW 18.0 mph29.0 kmh 30.33 in1027.1 mb 0.00 in0.0 mm 0.00 in0.0 mm 0.01 in0.3 mm
03:45 PM 47.9°F8.8°C 36.7°F2.6°C 65% 12.0 mph WNW19.3 kmh WNW 18.0 mph29.0 kmh 30.33 in1027.1 mb 0.00 in0.0 mm 0.00 in0.0 mm 0.01 in0.3 mm
04:00 PM 47.8°F8.8°C 37.0°F2.8°C 66% 13.0 mph W20.9 kmh W 19.0 mph30.6 kmh 30.33 in1027.1 mb 0.00 in0.0 mm 0.00 in0.0 mm 0.01 in0.3 mm
04:15 PM 48.0°F8.9°C 37.2°F2.9°C 66% 11.0 mph WNW17.7 kmh WNW 14.0 mph22.5 kmh 30.33 in1027.1 mb 0.00 in0.0 mm 0.00 in0.0 mm 0.01 in0.3 mm
04:30 PM 48.0°F8.9°C 37.9°F3.3°C 68% 10.0 mph W16.1 kmh W 16.0 mph25.7 kmh 30.34 in1027.4 mb 0.00 in0.0 mm 0.00 in0.0 mm 0.01 in0.3 mm
04:45 PM 47.9°F8.8°C 37.1°F2.8°C 66% 9.0 mph WNW14.5 kmh WNW 14.0 mph22.5 kmh 30.35 in1027.8 mb 0.00 in0.0 mm 0.00 in0.0 mm 0.01 in0.3 mm
05:00 PM 47.5°F8.6°C 37.1°F2.8°C 67% 10.0 mph W16.1 kmh W 13.0 mph20.9 kmh 30.35 in1027.8 mb 0.00 in0.0 mm 0.00 in0.0 mm 0.01 in0.3 mm
05:15 PM 47.2°F8.4°C 37.5°F3.1°C 69% 9.0 mph W14.5 kmh W 13.0 mph20.9 kmh 30.34 in1027.4 mb 0.00 in0.0 mm 0.00 in0.0 mm 0.01 in0.3 mm
05:30 PM 45.7°F7.6°C 36.5°F2.5°C 70% 9.0 mph W14.5 kmh W 12.0 mph19.3 kmh 30.35 in1027.8 mb 0.00 in0.0 mm 0.00 in0.0 mm 0.01 in0.3 mm
05:45 PM 45.4°F7.4°C 37.2°F2.9°C 73% 6.0 mph W9.7 kmh W 7.0 mph11.3 kmh 30.35 in1027.8 mb 0.00 in0.0 mm 0.00 in0.0 mm 0.01 in0.3 mm
06:00 PM 44.0°F6.7°C 36.6°F2.6°C 75% 3.0 mph W4.8 kmh W 4.0 mph6.4 kmh 30.36 in1028.1 mb 0.00 in0.0 mm 0.00 in0.0 mm 0.01 in0.3 mm
06:15 PM 41.6°F5.3°C 36.5°F2.5°C 82% 2.0 mph WNW3.2 kmh WNW 3.0 mph4.8 kmh 30.36 in1028.1 mb 0.00 in0.0 mm 0.00 in0.0 mm 0.01 in0.3 mm
06:30 PM 40.9°F4.9°C 36.1°F2.3°C 83% 2.0 mph WNW3.2 kmh WNW 2.0 mph3.2 kmh 30.36 in1028.1 mb 0.00 in0.0 mm 0.00 in0.0 mm 0.01 in0.3 mm
06:45 PM 40.6°F4.8°C 35.8°F2.1°C 83% 3.0 mph NW4.8 kmh NW 3.0 mph4.8 kmh 30.37 in1028.4 mb 0.00 in0.0 mm 0.00 in0.0 mm 0.01 in0.3 mm
07:00 PM 39.9°F4.4°C 35.5°F1.9°C 84% 2.0 mph NW3.2 kmh NW 3.0 mph4.8 kmh 30.38 in1028.8 mb 0.00 in0.0 mm 0.00 in0.0 mm 0.01 in0.3 mm
07:15 PM 39.5°F4.2°C 35.4°F1.9°C 85% 3.0 mph WNW4.8 kmh WNW 3.0 mph4.8 kmh 30.38 in1028.8 mb 0.00 in0.0 mm 0.00 in0.0 mm 0.01 in0.3 mm
07:30 PM 39.2°F4.0°C 35.1°F1.7°C 85% 2.0 mph WNW3.2 kmh WNW 2.0 mph3.2 kmh 30.38 in1028.8 mb 0.00 in0.0 mm 0.00 in0.0 mm 0.01 in0.3 mm
07:45 PM 37.4°F3.0°C 33.6°F0.9°C 86% 1.0 mph WNW1.6 kmh WNW 2.0 mph3.2 kmh 30.38 in1028.8 mb 0.00 in0.0 mm 0.00 in0.0 mm 0.01 in0.3 mm
08:00 PM 35.7°F2.1°C 32.5°F0.3°C 88% 1.0 mph WNW1.6 kmh WNW 1.0 mph1.6 kmh 30.38 in1028.8 mb 0.00 in0.0 mm 0.00 in0.0 mm 0.01 in0.3 mm
08:15 PM 35.7°F2.1°C 31.9°F-0.1°C 86% 1.0 mph WNW1.6 kmh WNW 2.0 mph3.2 kmh 30.38 in1028.8 mb 0.00 in0.0 mm 0.00 in0.0 mm 0.01 in0.3 mm
08:30 PM 36.6°F2.6°C 32.8°F0.4°C 86% 2.0 mph NW3.2 kmh NW 2.0 mph3.2 kmh 30.38 in1028.8 mb 0.00 in0.0 mm 0.00 in0.0 mm 0.01 in0.3 mm
08:45 PM 36.6°F2.6°C 33.1°F0.6°C 87% 1.0 mph NW1.6 kmh NW 2.0 mph3.2 kmh 30.38 in1028.8 mb 0.00 in0.0 mm 0.00 in0.0 mm 0.01 in0.3 mm
09:00 PM 36.1°F2.3°C 32.3°F0.2°C 86% 2.0 mph NW3.2 kmh NW 2.0 mph3.2 kmh 30.38 in1028.8 mb 0.00 in0.0 mm 0.00 in0.0 mm 0.01 in0.3 mm
09:15 PM 37.0°F2.8°C 33.2°F0.7°C 86% 1.0 mph NW1.6 kmh NW 2.0 mph3.2 kmh 30.39 in1029.1 mb 0.00 in0.0 mm 0.00 in0.0 mm 0.01 in0.3 mm
09:30 PM 35.5°F1.9°C 32.3°F0.2°C 88% 2.0 mph NW3.2 kmh NW 2.0 mph3.2 kmh 30.40 in1029.5 mb 0.00 in0.0 mm 0.00 in0.0 mm 0.01 in0.3 mm
09:45 PM 34.3°F1.3°C 31.4°F-0.3°C 89% 1.0 mph NW1.6 kmh NW 2.0 mph3.2 kmh 30.40 in1029.5 mb 0.00 in0.0 mm 0.00 in0.0 mm 0.01 in0.3 mm
10:00 PM 36.2°F2.3°C 33.3°F0.7°C 89% 1.0 mph NW1.6 kmh NW 2.0 mph3.2 kmh 30.40 in1029.5 mb 0.00 in0.0 mm 0.00 in0.0 mm 0.01 in0.3 mm
10:15 PM 35.5°F1.9°C 32.3°F0.2°C 88% 2.0 mph NW3.2 kmh NW 2.0 mph3.2 kmh 30.40 in1029.5 mb 0.00 in0.0 mm 0.00 in0.0 mm 0.01 in0.3 mm
10:30 PM 35.9°F2.2°C 32.1°F0.1°C 86% 2.0 mph WNW3.2 kmh WNW 3.0 mph4.8 kmh 30.41 in1029.8 mb 0.00 in0.0 mm 0.00 in0.0 mm 0.01 in0.3 mm
10:45 PM 35.4°F1.9°C 32.2°F0.1°C 88% 2.0 mph WNW3.2 kmh WNW 3.0 mph4.8 kmh 30.41 in1029.8 mb 0.00 in0.0 mm 0.00 in0.0 mm 0.01 in0.3 mm
11:00 PM 35.0°F1.7°C 32.1°F0.1°C 89% 3.0 mph WNW4.8 kmh WNW 3.0 mph4.8 kmh 30.42 in1030.1 mb 0.00 in0.0 mm 0.00 in0.0 mm 0.01 in0.3 mm
11:15 PM 35.0°F1.7°C 31.8°F-0.1°C 88% 2.0 mph WNW3.2 kmh WNW 3.0 mph4.8 kmh 30.42 in1030.1 mb 0.00 in0.0 mm 0.00 in0.0 mm 0.01 in0.3 mm
11:30 PM 35.0°F1.7°C 31.5°F-0.3°C 87% 3.0 mph NW4.8 kmh NW 3.0 mph4.8 kmh 30.41 in1029.8 mb 0.00 in0.0 mm 0.00 in0.0 mm 0.01 in0.3 mm
11:45 PM 35.2°F1.8°C 31.7°F-0.2°C 87% 2.0 mph WNW3.2 kmh WNW 3.0 mph4.8 kmh 30.41 in1029.8 mb 0.00 in0.0 mm 0.00 in0.0 mm 0.01 in0.3 mm